East End, Arkansas
Current Conditions -  °F | °C
As of 4:53 AM on Wednesday 22 Oct 2014 (Local Time) from KLIT Reporting Station
Clear Clear  
Wind Chill: 54°   Ceiling: Unl
Heat Index: 54°   Visibility: 10mi
Dew Point: 48°   Wind: 8mph
Humidity: 80%   Direction: 50°NE
Pressure: 30.15"   Gusts: NA
Location:  34.5559°N, 92.1911°W
Report Text: KLIT 220953Z 05007KT 10SM CLR 12/09 A3015 RMK AO2 SLP211 T01220089
Loading
Personal Weather Stations






























Interactive Weather Map
Tropical Storm Tracking
New forecast layout! Learn more

10-Day Weather Forecast

Advertisements
Track Severe Weather on mobile